Time;durP1;ratioP1;P1;durP2;ratioP2;P2;SDS_P1;SDS_P2;PMS_P1;PMS_P2;Temp;Humidity;BMP_temperature;BMP_pressure;BME280_temperature;BME280_humidity;BME280_pressure;Samples;Min_cycle;Max_cycle;Signal;HPM_P1;HPM_P2
2023/01/28 00:01:12;;;;;;;32.70;17.50;;;1.10;99.90;;;0.89;81.25;101006.53;4996915;28;20348;-65
2023/01/28 00:03:43;;;;;;;34.67;17.57;;;1.10;99.90;;;0.91;81.16;101008.31;4990195;28;20258;-63
2023/01/28 00:06:15;;;;;;;33.40;17.87;;;1.10;99.90;;;0.92;81.67;101007.53;4992732;28;20203;-66
2023/01/28 00:08:43;;;;;;;29.77;16.93;;;1.10;99.90;;;0.93;80.54;101004.19;4990455;28;20236;-64
2023/01/28 00:11:13;;;;;;;32.20;18.07;;;1.20;99.90;;;0.95;80.87;101006.78;4993450;28;20723;-65
2023/01/28 00:13:42;;;;;;;31.23;17.27;;;1.20;99.90;;;0.96;80.60;101006.84;4992986;28;20207;-67
2023/01/28 00:16:11;;;;;;;33.73;19.50;;;1.20;99.90;;;0.96;80.64;101011.94;4992084;28;20661;-66
2023/01/28 00:18:40;;;;;;;31.10;17.77;;;1.20;99.90;;;0.96;80.58;101017.00;4990775;28;20247;-65
2023/01/28 00:21:13;;;;;;;36.87;18.07;;;1.20;99.90;;;0.95;81.51;101010.16;4987133;28;20276;-67
2023/01/28 00:23:43;;;;;;;35.63;18.80;;;1.20;99.90;;;0.97;81.05;101010.25;4986494;28;20203;-66
2023/01/28 00:26:15;;;;;;;30.97;17.70;;;1.20;99.90;;;0.98;81.44;101013.66;4991457;28;20236;-66
2023/01/28 00:28:44;;;;;;;34.33;17.97;;;1.20;99.90;;;0.97;80.89;101005.19;4989609;28;20712;-66
2023/01/28 00:31:17;;;;;;;30.37;17.57;;;1.20;99.90;;;1.00;80.56;101009.53;4990813;28;20661;-65
2023/01/28 00:33:48;;;;;;;29.47;16.50;;;1.20;99.90;;;1.00;81.27;101007.00;4989423;28;20239;-68
2023/01/28 00:36:20;;;;;;;31.23;15.53;;;1.20;99.90;;;1.00;81.27;101005.31;4991832;28;20287;-66
2023/01/28 00:38:53;;;;;;;29.67;16.27;;;1.20;99.90;;;1.02;80.70;101018.06;4984420;28;20227;-65
2023/01/28 00:41:23;;;;;;;28.73;16.00;;;1.20;99.90;;;0.96;80.37;101011.94;4992482;28;20294;-65
2023/01/28 00:43:53;;;;;;;32.83;16.67;;;1.20;99.90;;;0.95;81.25;101014.38;4991502;28;20340;-66
2023/01/28 00:46:22;;;;;;;35.33;18.73;;;1.20;99.90;;;0.92;81.36;101007.53;4992482;28;20208;-66
2023/01/28 00:48:51;;;;;;;29.83;16.30;;;1.20;99.90;;;0.96;81.49;101011.94;4990490;28;20215;-66
2023/01/28 00:51:22;;;;;;;27.63;15.57;;;1.20;99.90;;;0.95;81.37;101005.09;4992677;28;20242;-67
2023/01/28 00:53:51;;;;;;;30.27;17.10;;;1.20;99.90;;;0.98;80.82;101008.59;4989486;28;20212;-65
2023/01/28 00:56:20;;;;;;;28.83;17.03;;;1.20;99.90;;;0.97;80.95;101002.66;4993041;28;20219;-66
2023/01/28 00:58:49;;;;;;;30.27;16.37;;;1.20;99.90;;;0.99;81.56;101001.03;4991283;28;20266;-63
2023/01/28 01:01:20;;;;;;;31.13;16.37;;;1.20;99.90;;;1.01;81.26;101003.63;4993032;28;20752;-66
2023/01/28 01:03:56;;;;;;;30.73;16.80;;;1.20;99.90;;;1.00;81.43;101001.91;4991635;28;20737;-66
2023/01/28 01:06:26;;;;;;;28.93;16.53;;;1.20;99.90;;;0.98;81.22;101009.44;4992070;28;20251;-67
2023/01/28 01:08:54;;;;;;;28.97;15.50;;;1.20;99.90;;;0.98;80.96;100999.28;4991325;28;20574;-65
2023/01/28 01:11:23;;;;;;;31.50;16.30;;;1.20;99.90;;;0.98;81.40;101000.97;4990381;28;20200;-65
2023/01/28 01:13:55;;;;;;;30.03;16.90;;;1.20;99.90;;;1.00;81.18;100999.38;4994041;28;20212;-65
2023/01/28 01:16:27;;;;;;;30.43;16.43;;;1.20;99.90;;;1.03;81.10;101002.03;4996617;28;20568;-65
2023/01/28 01:18:56;;;;;;;30.93;17.03;;;1.20;99.90;;;1.07;80.76;101001.34;4995679;28;20219;-66
2023/01/28 01:21:29;;;;;;;29.10;16.37;;;1.30;99.90;;;1.09;80.74;101012.44;4995594;28;20232;-65
2023/01/28 01:23:57;;;;;;;31.87;16.87;;;1.30;99.90;;;1.08;80.94;101003.09;4992182;28;20207;-65
2023/01/28 01:26:26;;;;;;;29.77;15.40;;;1.30;99.90;;;1.10;80.50;101004.00;4993360;28;20214;-66
2023/01/28 01:28:55;;;;;;;29.17;16.00;;;1.30;99.90;;;1.08;80.88;101000.56;4992141;28;20231;-63
2023/01/28 01:31:23;;;;;;;31.93;16.13;;;1.30;99.90;;;1.08;80.83;100998.03;4994732;28;20212;-64
2023/01/28 01:33:52;;;;;;;31.50;15.47;;;1.30;99.90;;;1.06;81.07;100992.88;4993559;28;20210;-67
2023/01/28 01:36:22;;;;;;;29.30;16.03;;;1.30;99.90;;;1.06;81.12;100999.63;4993840;28;20666;-63
2023/01/28 01:38:55;;;;;;;28.30;15.43;;;1.30;99.90;;;1.08;81.00;100992.94;4989992;28;20205;-65
2023/01/28 01:41:29;;;;;;;29.33;15.07;;;1.30;99.90;;;1.09;80.80;100999.75;4992992;28;20708;-67
2023/01/28 01:44:00;;;;;;;29.80;16.47;;;1.30;99.90;;;1.06;81.09;101000.47;4980713;28;20203;-64
2023/01/28 01:46:37;;;;;;;31.50;16.00;;;1.30;99.90;;;1.02;80.94;100995.22;4981667;28;20212;-66
2023/01/28 01:49:16;;;;;;;26.03;15.63;;;1.30;99.90;;;1.04;81.01;101004.63;4993495;28;20204;-64
2023/01/28 01:51:48;;;;;;;27.50;16.67;;;1.20;99.90;;;1.04;81.00;101001.25;4993823;28;20254;-65
2023/01/28 01:54:21;;;;;;;27.50;15.63;;;1.30;99.90;;;1.07;80.99;100994.63;4993314;28;20212;-65
2023/01/28 01:56:52;;;;;;;25.40;14.87;;;1.30;99.90;;;1.10;80.65;100997.25;4994187;28;20234;-66
2023/01/28 01:59:26;;;;;;;31.10;16.37;;;1.30;99.90;;;1.11;80.92;101000.69;4992482;28;20215;-67
2023/01/28 02:01:55;;;;;;;28.20;15.33;;;1.30;99.90;;;1.08;80.89;100993.81;4993624;28;20689;-67
2023/01/28 02:04:28;;;;;;;29.37;16.27;;;1.30;99.90;;;1.14;80.52;101000.78;4991936;28;20695;-66
2023/01/28 02:06:59;;;;;;;32.03;16.07;;;1.30;99.90;;;1.17;80.42;101006.00;4993080;28;20639;-66
2023/01/28 02:09:31;;;;;;;29.13;15.83;;;1.30;99.90;;;1.15;80.70;100997.47;4993798;28;20204;-67
2023/01/28 02:12:07;;;;;;;28.17;16.00;;;1.40;99.90;;;1.18;80.52;101003.56;4993392;28;20212;-66
2023/01/28 02:14:41;;;;;;;31.20;16.27;;;1.40;99.90;;;1.17;80.67;101006.88;4991000;28;20644;-66
2023/01/28 02:17:10;;;;;;;28.63;16.03;;;1.40;99.90;;;1.21;80.46;101012.94;5000824;28;20203;-66
2023/01/28 02:19:44;;;;;;;27.53;15.50;;;1.40;99.90;;;1.18;80.13;101000.16;4991870;28;20270;-67
2023/01/28 02:23:21;;;;;;;21.97;14.47;;;1.40;99.90;;;1.23;80.19;101008.81;4992810;28;20212;-66
2023/01/28 02:26:25;;;;;;;28.20;14.40;;;1.40;99.90;;;1.26;80.55;101011.47;4956707;28;20216;-64
2023/01/28 02:29:03;;;;;;;26.13;14.43;;;1.40;99.90;;;1.30;80.39;101010.81;4988707;28;20215;-66
2023/01/28 02:31:39;;;;;;;27.03;15.23;;;1.50;99.90;;;1.30;80.29;101008.25;4989327;28;20207;-67
2023/01/28 02:34:17;;;;;;;22.53;14.27;;;1.50;99.90;;;1.30;80.48;101013.34;4992510;28;20199;-66
2023/01/28 02:36:52;;;;;;;23.17;14.20;;;1.50;99.90;;;1.29;80.16;101014.16;4990897;28;20210;-66
2023/01/28 02:39:29;;;;;;;22.80;14.57;;;1.50;99.90;;;1.29;80.30;101010.72;4990942;28;20211;-67
2023/01/28 02:42:02;;;;;;;22.60;13.43;;;1.50;99.90;;;1.25;80.36;101004.66;4992847;28;20263;-65
2023/01/28 02:44:32;;;;;;;23.60;13.80;;;1.40;99.90;;;1.25;80.40;101006.31;4998725;28;20200;-64
2023/01/28 03:37:00;;;;;;;20.63;12.10;;;1.40;99.90;;;1.20;80.63;101008.69;4989915;28;20211;-64
2023/01/28 03:39:30;;;;;;;18.37;11.93;;;1.40;99.90;;;1.21;80.22;101007.88;4989823;28;20255;-67
2023/01/28 03:42:03;;;;;;;19.33;11.73;;;1.40;99.90;;;1.23;80.58;101011.34;4980388;28;20573;-64
2023/01/28 03:47:21;;;;;;;19.30;11.87;;;1.40;99.90;;;1.25;80.02;101009.72;4980425;28;20254;-65
2023/01/28 03:49:51;;;;;;;18.57;11.70;;;1.40;99.90;;;1.25;80.05;101019.88;4986509;28;20208;-65
2023/01/28 03:52:23;;;;;;;18.30;11.70;;;1.40;99.90;;;1.24;80.05;101012.22;4991046;28;20277;-65
2023/01/28 03:54:52;;;;;;;19.10;11.97;;;1.40;99.90;;;1.25;80.25;101016.47;4991174;28;20572;-65
2023/01/28 03:57:23;;;;;;;20.87;12.10;;;1.50;99.90;;;1.24;80.23;101010.53;4991318;28;20290;-66
2023/01/28 03:59:54;;;;;;;21.50;12.73;;;1.50;99.90;;;1.28;80.21;101009.00;4995893;28;20228;-67
2023/01/28 04:02:25;;;;;;;16.33;10.40;;;1.50;99.90;;;1.30;80.04;101017.56;4991623;28;20258;-65
2023/01/28 04:04:54;;;;;;;18.00;10.87;;;1.50;99.90;;;1.30;80.46;101015.88;4991472;28;20208;-65
2023/01/28 04:07:23;;;;;;;16.53;11.00;;;1.40;99.90;;;1.29;79.59;101016.69;4984897;28;20204;-65
2023/01/28 04:09:51;;;;;;;17.77;11.60;;;1.50;99.90;;;1.28;80.60;101020.00;4990004;28;20251;-65
2023/01/28 04:12:19;;;;;;;17.80;10.83;;;1.40;99.90;;;1.24;80.31;101013.06;4989031;28;20208;-66
2023/01/28 04:14:48;;;;;;;16.70;10.70;;;1.40;99.90;;;1.23;80.47;101010.50;4990679;28;20204;-66
2023/01/28 04:17:16;;;;;;;16.20;10.53;;;1.40;99.90;;;1.21;79.54;101015.47;4987738;28;20796;-66
2023/01/28 04:19:46;;;;;;;19.40;11.87;;;1.40;99.90;;;1.22;79.96;101016.38;4989886;28;20246;-65
2023/01/28 04:22:14;;;;;;;16.83;10.97;;;1.40;99.90;;;1.22;79.76;101017.25;4991030;28;20785;-66
2023/01/28 04:24:43;;;;;;;14.80;10.07;;;1.40;99.90;;;1.18;80.48;101013.72;4977456;28;20266;-66
2023/01/28 04:27:11;;;;;;;18.20;10.93;;;1.40;99.90;;;1.18;80.29;101012.84;4989699;28;20239;-66
2023/01/28 04:29:40;;;;;;;17.80;10.97;;;1.40;99.90;;;1.17;79.75;101011.09;4989169;28;20653;-65
2023/01/28 04:32:08;;;;;;;17.97;10.67;;;1.40;99.90;;;1.15;79.81;101013.56;4991184;28;20282;-67
2023/01/28 04:34:38;;;;;;;15.57;9.87;;;1.40;99.90;;;1.17;80.19;101021.22;4991290;28;20204;-67
2023/01/28 04:37:09;;;;;;;17.37;11.30;;;1.40;99.90;;;1.16;80.54;101017.84;4991097;28;20212;-68
2023/01/28 04:39:39;;;;;;;17.37;11.00;;;1.40;99.90;;;1.22;80.58;101022.31;4989607;28;20862;-66
2023/01/28 04:42:07;;;;;;;18.77;11.13;;;1.40;99.90;;;1.24;80.23;101018.16;4990004;28;20231;-65
2023/01/28 04:44:36;;;;;;;16.67;10.40;;;1.40;99.90;;;1.28;79.93;101021.69;4990391;28;20211;-67
2023/01/28 04:47:04;;;;;;;17.67;10.70;;;1.40;99.90;;;1.29;79.90;101021.78;4990722;28;20262;-67
2023/01/28 04:49:33;;;;;;;18.47;11.33;;;1.50;99.90;;;1.31;80.11;101030.31;4992682;28;20200;-69
2023/01/28 04:52:01;;;;;;;19.33;11.40;;;1.50;99.90;;;1.30;79.70;101027.72;4995286;28;20200;-67
2023/01/28 04:54:31;;;;;;;19.20;11.77;;;1.50;99.90;;;1.27;80.25;101020.81;4995206;28;20219;-67
2023/01/28 04:57:00;;;;;;;20.63;11.73;;;1.50;99.90;;;1.28;80.06;101037.78;4989235;28;20665;-66
2023/01/28 04:59:28;;;;;;;17.13;11.20;;;1.50;99.90;;;1.23;79.69;101021.50;4993142;28;20218;-69
2023/01/28 05:01:57;;;;;;;17.80;11.63;;;1.50;99.90;;;1.23;79.76;101026.59;5002079;28;20227;-67
2023/01/28 05:04:25;;;;;;;16.73;10.90;;;1.40;99.90;;;1.22;79.94;101024.84;4993652;28;20565;-66
2023/01/28 05:06:54;;;;;;;18.03;10.90;;;1.40;99.90;;;1.24;79.88;101027.44;4992738;28;20208;-67
2023/01/28 05:09:23;;;;;;;18.00;11.40;;;1.40;99.90;;;1.25;79.82;101029.16;4990310;28;20228;-64
2023/01/28 05:11:53;;;;;;;20.13;11.37;;;1.40;99.90;;;1.24;80.04;101027.44;4993926;28;20214;-67
2023/01/28 05:14:21;;;;;;;17.53;11.70;;;1.40;99.90;;;1.23;79.91;101031.66;4995173;28;20247;-64
2023/01/28 05:16:50;;;;;;;18.57;10.80;;;1.40;99.90;;;1.26;80.55;101028.38;4993082;28;20204;-68
2023/01/28 05:19:19;;;;;;;18.37;11.30;;;1.40;99.90;;;1.23;80.29;101024.03;4993534;28;20266;-64
2023/01/28 05:21:48;;;;;;;16.03;10.53;;;1.40;99.90;;;1.26;80.40;101030.94;4992423;28;20681;-65
2023/01/28 05:24:16;;;;;;;18.40;11.83;;;1.40;99.90;;;1.25;79.67;101027.50;4993673;28;20291;-68
2023/01/28 05:26:45;;;;;;;16.53;10.60;;;1.40;99.90;;;1.27;80.19;101037.72;4993050;28;20211;-66
2023/01/28 05:29:15;;;;;;;17.97;10.23;;;1.50;99.90;;;1.26;79.99;101034.34;4994297;28;20657;-65
2023/01/28 05:31:43;;;;;;;19.20;10.83;;;1.40;99.90;;;1.25;79.36;101040.19;4992161;28;20316;-66
2023/01/28 05:34:12;;;;;;;18.83;10.70;;;1.50;99.90;;;1.21;79.86;101033.25;4994626;28;20718;-67
2023/01/28 05:36:40;;;;;;;18.70;10.77;;;1.40;99.90;;;1.22;79.84;101034.16;4991988;28;20211;-68
2023/01/28 05:39:09;;;;;;;18.47;12.20;;;1.40;99.90;;;1.20;79.56;101036.59;4986131;28;20216;-64
2023/01/28 05:41:37;;;;;;;18.10;11.03;;;1.40;99.90;;;1.20;79.79;101041.69;5010572;28;20235;-70
2023/01/28 05:44:06;;;;;;;18.03;11.10;;;1.40;99.90;;;1.20;80.35;101036.59;5019555;28;20219;-68
2023/01/28 05:46:36;;;;;;;19.07;11.80;;;1.40;99.90;;;1.21;80.35;101035.78;5018728;28;20193;-69
2023/01/28 05:49:07;;;;;;;18.37;10.73;;;1.40;99.90;;;1.23;79.52;101038.41;5017427;28;20239;-70
2023/01/28 05:51:35;;;;;;;17.90;11.10;;;1.50;99.90;;;1.23;79.50;101048.56;5014675;28;20279;-69
2023/01/28 05:54:04;;;;;;;21.33;12.20;;;1.40;99.90;;;1.22;80.56;101050.25;5013580;28;20203;-70
2023/01/28 05:56:33;;;;;;;20.70;11.73;;;1.40;99.90;;;1.19;80.58;101035.75;5018866;28;20260;-69
2023/01/28 05:59:05;;;;;;;22.43;11.80;;;1.40;99.90;;;1.22;80.39;101040.09;5017790;28;20204;-69
2023/01/28 06:01:36;;;;;;;18.93;11.60;;;1.40;99.90;;;1.21;80.26;101051.03;5017367;28;20211;-70
2023/01/28 06:04:05;;;;;;;20.63;11.53;;;1.40;99.90;;;1.17;80.77;101037.31;5019305;28;20200;-68
2023/01/28 06:06:34;;;;;;;17.73;11.27;;;1.40;99.90;;;1.21;80.85;101048.47;5019326;28;20188;-70
2023/01/28 06:09:02;;;;;;;19.80;12.00;;;1.40;99.90;;;1.19;80.01;101042.50;5017562;28;20195;-68
2023/01/28 06:11:31;;;;;;;22.23;12.43;;;1.40;99.90;;;1.22;80.11;101052.78;5015041;28;20196;-69
2023/01/28 06:13:59;;;;;;;23.37;11.77;;;1.40;99.90;;;1.22;80.33;101050.25;5017927;28;20243;-69
2023/01/28 06:16:28;;;;;;;20.40;11.77;;;1.40;99.90;;;1.28;80.75;101060.63;5018276;28;20204;-68
2023/01/28 06:18:58;;;;;;;22.57;11.87;;;1.40;99.90;;;1.28;81.22;101063.16;5016790;28;20216;-69
2023/01/28 06:21:26;;;;;;;21.17;11.57;;;1.40;99.90;;;1.28;80.66;101063.16;5018003;28;20236;-69
2023/01/28 06:23:57;;;;;;;21.10;12.53;;;1.40;99.90;;;1.28;80.87;101060.63;5017550;28;20192;-67
2023/01/28 06:26:25;;;;;;;20.60;11.87;;;1.50;99.90;;;1.30;80.27;101063.25;5004210;28;20263;-70
2023/01/28 06:28:54;;;;;;;19.77;11.97;;;1.40;99.90;;;1.31;80.57;101067.53;5004383;28;20216;-71
2023/01/28 06:31:22;;;;;;;20.17;12.47;;;1.40;99.90;;;1.26;80.40;101064.78;5007125;28;20192;-71
2023/01/28 06:33:51;;;;;;;20.20;11.27;;;1.40;99.90;;;1.26;80.77;101069.00;4997720;28;20322;-67
2023/01/28 06:36:21;;;;;;;20.27;12.30;;;1.40;99.90;;;1.28;81.08;101069.94;5007436;28;20712;-66
2023/01/28 06:38:49;;;;;;;19.23;11.60;;;1.40;99.90;;;1.28;81.15;101062.31;4991539;28;20830;-66
2023/01/28 06:41:18;;;;;;;21.40;12.60;;;1.40;99.90;;;1.28;81.19;101070.78;4992511;28;20330;-66
2023/01/28 06:43:46;;;;;;;18.83;11.30;;;1.40;99.90;;;1.29;80.19;101080.16;4987289;28;20283;-63
2023/01/28 06:46:15;;;;;;;22.37;11.20;;;1.50;99.90;;;1.29;80.17;101080.16;4993231;28;20204;-67
2023/01/28 06:48:43;;;;;;;21.60;12.50;;;1.40;99.90;;;1.28;80.43;101069.94;4987088;28;20657;-68
2023/01/28 06:51:12;;;;;;;19.40;11.10;;;1.50;99.90;;;1.23;80.54;101062.13;4990510;28;20216;-66
2023/01/28 06:53:42;;;;;;;21.13;11.47;;;1.50;99.90;;;1.31;80.37;101078.53;4985907;28;20262;-67
2023/01/28 06:56:13;;;;;;;23.23;11.60;;;1.50;99.90;;;1.32;80.64;101074.31;4989499;28;20234;-65
2023/01/28 06:58:41;;;;;;;19.70;10.70;;;1.50;99.90;;;1.32;81.05;101082.81;4986170;28;20710;-65
2023/01/28 07:01:10;;;;;;;20.07;11.30;;;1.50;99.90;;;1.29;80.59;101084.34;4984587;28;20529;-65
2023/01/28 07:03:38;;;;;;;21.77;11.47;;;1.50;99.90;;;1.29;80.46;101087.78;4990885;28;20270;-63
2023/01/28 07:06:07;;;;;;;22.83;11.03;;;1.50;99.90;;;1.30;81.35;101099.66;4988547;28;20216;-66
2023/01/28 07:08:36;;;;;;;19.57;11.07;;;1.50;99.90;;;1.33;80.91;101094.72;4989396;28;20255;-64
2023/01/28 07:11:06;;;;;;;19.67;10.90;;;1.50;99.90;;;1.36;81.58;101099.94;4991219;28;20262;-65
2023/01/28 07:13:35;;;;;;;18.93;10.90;;;1.50;99.90;;;1.38;80.99;101087.28;4990007;28;20262;-65
2023/01/28 07:16:04;;;;;;;22.20;10.77;;;1.60;99.90;;;1.43;80.72;101091.75;4988546;28;20723;-65
2023/01/28 07:18:33;;;;;;;20.13;11.47;;;1.60;99.90;;;1.48;80.47;101098.72;4985296;28;20204;-66
2023/01/28 07:21:01;;;;;;;15.60;9.33;;;1.60;99.90;;;1.47;80.50;101097.81;4988025;28;20218;-64
2023/01/28 07:23:30;;;;;;;16.90;10.17;;;1.60;99.90;;;1.45;81.25;101090.16;4989435;28;20589;-64
2023/01/28 07:26:02;;;;;;;17.50;10.63;;;1.60;99.90;;;1.44;81.00;101085.88;4990634;28;20286;-66
2023/01/28 07:28:34;;;;;;;17.10;9.90;;;1.60;99.90;;;1.43;81.02;101096.81;4990096;28;20719;-71
2023/01/28 07:31:03;;;;;;;17.90;9.87;;;1.60;99.90;;;1.42;80.38;101104.38;4991501;28;20266;-65
2023/01/28 07:33:31;;;;;;;17.63;10.23;;;1.60;99.90;;;1.44;80.67;101102.78;4986450;28;20258;-67
2023/01/28 07:36:00;;;;;;;18.03;10.53;;;1.60;99.90;;;1.43;80.54;101106.13;4986926;28;20254;-72
2023/01/28 07:38:28;;;;;;;16.03;10.37;;;1.60;99.90;;;1.42;80.77;101104.38;4988745;28;20215;-70
2023/01/28 07:40:57;;;;;;;14.10;9.63;;;1.60;99.90;;;1.40;81.09;101109.41;4988929;28;20251;-69
2023/01/28 07:43:26;;;;;;;14.27;9.47;;;1.60;99.90;;;1.38;81.00;101108.47;4979968;28;20231;-71
2023/01/28 07:45:55;;;;;;;17.17;10.70;;;1.60;99.90;;;1.39;80.65;101110.19;4986449;28;20200;-71
2023/01/28 07:48:24;;;;;;;15.50;9.90;;;1.60;99.90;;;1.37;80.48;101105.88;4989014;28;20302;-69
2023/01/28 07:50:53;;;;;;;15.40;9.30;;;1.60;99.90;;;1.38;80.69;101107.59;4986777;28;20622;-69
2023/01/28 07:53:22;;;;;;;15.13;9.47;;;1.50;99.90;;;1.36;81.18;101104.13;4988404;28;20215;-68
2023/01/28 07:55:51;;;;;;;16.53;10.37;;;1.50;99.90;;;1.39;80.81;101115.28;4987428;28;20575;-67
2023/01/28 07:58:19;;;;;;;17.30;9.97;;;1.60;99.90;;;1.41;80.75;101117.91;4990293;28;20207;-66
2023/01/28 08:00:48;;;;;;;16.83;9.97;;;1.60;99.90;;;1.41;80.54;101112.81;4988240;28;20216;-77
2023/01/28 08:03:18;;;;;;;15.77;10.13;;;1.60;99.90;;;1.40;80.59;101109.41;5004497;28;20230;-76
2023/01/28 08:05:49;;;;;;;14.70;9.37;;;1.50;99.90;;;1.42;80.59;101117.94;5004920;28;20199;-73
2023/01/28 08:08:18;;;;;;;15.63;10.17;;;1.60;99.90;;;1.41;80.55;101102.66;5005349;28;20200;-77
2023/01/28 08:10:47;;;;;;;18.07;10.53;;;1.60;99.90;;;1.38;81.24;101108.47;4998475;28;20243;-77
2023/01/28 08:15:44;;;;;;;15.13;8.93;;;1.60;99.90;;;1.39;80.57;101105.13;5010170;28;20203;-76
2023/01/28 08:18:16;;;;;;;16.90;9.90;;;1.60;99.90;;;1.37;80.45;101099.13;5007335;28;20264;-78
2023/01/28 08:20:46;;;;;;;16.70;10.27;;;1.60;99.90;;;1.37;80.59;101101.66;5001630;28;20212;-76
2023/01/28 08:23:18;;;;;;;16.73;9.60;;;1.60;99.90;;;1.42;81.24;101105.25;4993998;28;20672;-77
2023/01/28 08:25:48;;;;;;;15.07;9.83;;;1.60;99.90;;;1.43;80.58;101106.97;4997699;28;20208;-77
2023/01/28 08:28:18;;;;;;;13.00;9.67;;;1.60;99.90;;;1.44;80.84;101108.72;4998167;28;20294;-76
2023/01/28 08:30:47;;;;;;;13.13;9.43;;;1.60;99.90;;;1.42;80.26;101104.38;4999649;28;20896;-76
2023/01/28 08:33:18;;;;;;;15.57;10.57;;;1.60;99.90;;;1.43;80.56;101109.50;4994576;28;20204;-75
2023/01/28 08:35:48;;;;;;;16.13;10.13;;;1.60;99.90;;;1.43;80.64;101106.97;4998208;28;20211;-79
2023/01/28 08:38:18;;;;;;;14.87;9.67;;;1.60;99.90;;;1.43;80.28;101108.66;4996643;28;20200;-74
2023/01/28 08:40:49;;;;;;;13.60;9.53;;;1.60;99.90;;;1.42;80.67;101105.25;4996968;28;20210;-78
2023/01/28 08:43:17;;;;;;;13.57;9.50;;;1.60;99.90;;;1.41;80.30;101100.13;4998234;28;20212;-80
2023/01/28 08:45:46;;;;;;;14.30;9.90;;;1.60;99.90;;;1.39;80.72;101110.19;4996722;28;20646;-81
2023/01/28 08:48:17;;;;;;;14.40;9.70;;;1.60;99.90;;;1.38;80.45;101107.59;5006047;28;20200;-82
2023/01/28 08:50:47;;;;;;;13.03;9.37;;;1.60;99.90;;;1.36;80.74;101105.00;5000694;28;20222;-78
2023/01/28 08:53:18;;;;;;;14.03;9.50;;;1.50;99.90;;;1.33;80.52;101106.56;4994607;28;20594;-85
2023/01/28 08:55:48;;;;;;;12.03;8.07;;;1.50;99.90;;;1.32;80.58;101107.31;4999882;28;20207;-82
2023/01/28 08:58:18;;;;;;;13.03;9.73;;;1.50;99.90;;;1.33;80.84;101109.94;5000266;28;20212;-76
2023/01/28 09:00:48;;;;;;;12.53;9.40;;;1.50;99.90;;;1.36;80.42;101112.63;4997647;28;20228;-70
2023/01/28 09:03:18;;;;;;;14.03;9.73;;;1.50;99.90;;;1.37;80.86;101116.91;4987992;28;20239;-73
2023/01/28 09:05:49;;;;;;;16.37;11.00;;;1.60;99.90;;;1.36;80.25;101110.09;4998413;28;20196;-74
2023/01/28 09:08:18;;;;;;;12.73;9.60;;;1.50;99.90;;;1.39;80.18;101120.34;4991801;28;20196;-70
2023/01/28 09:10:47;;;;;;;13.60;10.00;;;1.60;99.90;;;1.39;80.92;101125.44;4976008;28;20662;-70
2023/01/28 09:13:19;;;;;;;12.87;9.47;;;1.60;99.90;;;1.40;81.25;101128.81;4993318;28;20258;-74
2023/01/28 09:15:50;;;;;;;16.83;10.13;;;1.60;99.90;;;1.43;80.42;101131.50;4940566;29;20237;-76
2023/01/28 09:18:18;;;;;;;13.67;9.73;;;1.60;99.90;;;1.42;80.62;101130.66;4956079;28;20745;-73
2023/01/28 09:20:48;;;;;;;14.93;10.07;;;1.60;99.90;;;1.42;80.07;101125.56;4938379;29;20245;-75
2023/01/28 09:23:17;;;;;;;13.63;9.43;;;1.60;99.90;;;1.44;80.99;101139.22;4932605;29;20226;-73
2023/01/28 09:25:45;;;;;;;13.60;9.80;;;1.60;99.90;;;1.44;80.95;101135.81;4925025;29;20281;-74
2023/01/28 09:28:14;;;;;;;15.90;9.53;;;1.60;99.90;;;1.45;80.46;101138.41;4935701;29;20240;-73
2023/01/28 09:30:42;;;;;;;13.67;9.50;;;1.60;99.90;;;1.43;80.50;101134.03;4929747;29;20214;-71
2023/01/28 09:33:11;;;;;;;14.90;9.63;;;1.60;99.90;;;1.44;80.34;101138.34;4924806;29;20666;-72
2023/01/28 09:35:40;;;;;;;12.57;9.33;;;1.60;99.90;;;1.43;80.78;101140.00;4935209;29;20214;-71
2023/01/28 09:38:09;;;;;;;15.57;9.77;;;1.60;99.90;;;1.38;80.74;101138.94;4932303;29;20210;-76
2023/01/28 09:40:42;;;;;;;12.80;9.33;;;1.60;99.90;;;1.36;80.46;101138.03;4941527;29;20235;-75
2023/01/28 09:43:39;;;;;;;13.90;9.97;;;1.60;99.90;;;1.36;80.59;101137.13;4931205;29;20202;-73
2023/01/28 09:46:13;;;;;;;14.43;9.87;;;1.50;99.90;;;1.36;80.89;101132.94;4936982;29;20308;-74
2023/01/28 09:48:46;;;;;;;12.83;9.07;;;1.60;99.90;;;1.37;80.80;101131.25;4944275;29;20213;-71
2023/01/28 09:51:32;;;;;;;15.13;10.03;;;1.60;99.90;;;1.42;80.77;101130.66;4932078;29;20206;-70
2023/01/28 09:54:14;;;;;;;14.43;10.10;;;1.60;99.90;;;1.46;80.52;101131.66;4955205;28;20237;-69
2023/01/28 09:56:45;;;;;;;13.37;9.67;;;1.70;99.90;;;1.49;80.92;101133.44;4925163;29;20615;-68
2023/01/28 09:59:20;;;;;;;15.40;10.10;;;1.70;99.90;;;1.53;81.44;101137.84;4927767;29;20273;-64
2023/01/28 10:01:59;;;;;;;13.47;10.30;;;1.70;99.90;;;1.51;80.93;101134.38;4932869;29;20236;-65
2023/01/28 10:04:48;;;;;;;14.03;9.10;;;1.70;99.90;;;1.51;80.30;101125.09;4931948;29;20246;-66
2023/01/28 10:07:32;;;;;;;13.77;9.70;;;1.70;99.90;;;1.50;80.33;101122.47;4924567;29;20222;-65
2023/01/28 10:10:09;;;;;;;13.13;9.53;;;1.70;99.90;;;1.54;80.97;101126.88;4933911;29;20241;-63
2023/01/28 10:13:03;;;;;;;13.10;9.43;;;1.70;99.90;;;1.55;80.19;101124.44;4930464;29;20213;-66
2023/01/28 10:15:56;;;;;;;14.60;9.27;;;1.80;99.90;;;1.58;80.42;101113.50;4965915;28;21012;-64
2023/01/28 10:18:38;;;;;;;12.10;8.83;;;1.80;99.90;;;1.61;80.81;101121.25;4972499;28;20209;-66
2023/01/28 10:21:18;;;;;;;10.77;8.73;;;1.80;99.90;;;1.61;80.66;101118.72;4969289;28;20224;-68
2023/01/28 10:23:58;;;;;;;12.97;8.60;;;1.80;99.90;;;1.59;79.97;101120.34;4975392;28;20629;-69
2023/01/28 10:26:35;;;;;;;13.87;9.70;;;1.80;99.90;;;1.60;80.47;101122.06;4968048;28;20224;-68
2023/01/28 10:29:13;;;;;;;14.40;9.63;;;1.80;99.90;;;1.60;80.31;101115.31;4973566;28;20288;-67
2023/01/28 10:31:52;;;;;;;13.57;10.00;;;1.80;99.90;;;1.59;79.68;101105.97;4972283;28;20196;-66
2023/01/28 10:34:22;;;;;;;13.03;8.67;;;1.80;99.90;;;1.58;79.09;101110.97;4966868;28;20255;-64
2023/01/28 10:36:51;;;;;;;13.40;8.97;;;1.80;99.90;;;1.57;79.19;101110.09;4972237;28;20236;-69
2023/01/28 10:39:23;;;;;;;11.83;9.23;;;1.80;99.90;;;1.58;79.12;101109.28;4975668;28;20724;-65
2023/01/28 10:41:53;;;;;;;11.93;9.30;;;1.80;99.90;;;1.58;79.32;101105.88;4974250;28;20200;-66
2023/01/28 10:44:36;;;;;;;13.47;9.13;;;1.80;99.90;;;1.55;79.27;101101.56;4975914;28;20234;-71
2023/01/28 10:47:13;;;;;;;14.03;9.63;;;1.80;99.90;;;1.59;79.88;101107.66;4971929;28;20228;-69
2023/01/28 10:49:47;;;;;;;14.23;9.97;;;1.80;99.90;;;1.59;79.21;101095.81;4970330;28;20209;-69
2023/01/28 10:52:17;;;;;;;13.97;9.97;;;1.80;99.90;;;1.63;79.79;101099.34;4973743;28;20196;-70
2023/01/28 10:54:45;;;;;;;13.07;9.27;;;1.80;99.90;;;1.62;78.96;101098.47;4976487;28;20204;-65
2023/01/28 10:57:18;;;;;;;13.73;9.87;;;1.80;99.90;;;1.62;79.04;101108.66;4974616;28;20592;-66
2023/01/28 10:59:48;;;;;;;13.50;9.50;;;1.80;99.90;;;1.61;78.79;101103.47;4966862;28;20193;-66
2023/01/28 11:02:35;;;;;;;12.80;9.23;;;1.80;99.90;;;1.61;78.71;101100.94;4975770;28;20646;-63
2023/01/28 11:05:15;;;;;;;14.03;9.57;;;1.80;99.90;;;1.60;79.08;101091.59;4973147;28;20220;-64
2023/01/28 11:07:44;;;;;;;13.90;9.97;;;1.80;99.90;;;1.62;78.59;101101.03;4970450;28;20207;-64
2023/01/28 11:10:32;;;;;;;14.63;10.73;;;1.80;99.90;;;1.63;78.77;101096.81;4974271;28;20263;-65
2023/01/28 11:13:04;;;;;;;14.33;9.37;;;1.80;99.90;;;1.65;79.20;101097.72;4969719;28;20213;-68
2023/01/28 11:15:33;;;;;;;13.73;9.13;;;1.80;99.90;;;1.68;79.29;101092.78;4971848;28;20296;-67
2023/01/28 11:18:06;;;;;;;13.90;9.23;;;1.80;99.90;;;1.67;78.76;101091.03;4969339;28;20204;-65
2023/01/28 11:20:42;;;;;;;13.53;8.77;;;1.80;99.90;;;1.60;78.39;101092.47;4973632;28;20200;-69
2023/01/28 11:23:21;;;;;;;12.00;9.10;;;1.80;99.90;;;1.59;78.26;101087.31;4964124;28;20227;-70
2023/01/28 11:26:02;;;;;;;12.93;8.53;;;1.80;99.90;;;1.59;78.72;101085.66;4968394;28;20235;-69
2023/01/28 11:28:33;;;;;;;13.43;9.17;;;1.80;99.90;;;1.63;78.99;101084.09;4970592;28;20201;-66